Terminal Aerodrome Forecast
Issued by NWS Bismarck, ND

Home | Current Version | Previous Version | Graphics & Text | Print | Product List | Glossary On
Versions: 1 2 3 4 5 6 7 8 9 10 11 12 13 14 15 16 17 18 19 20 21 22 23
000
FTUS43 KBIS 281917 AAB
TAFBIS
TAF AMD
KBIS 281917Z 2819/2918 05005KT P6SM VCSH SCT030 BKN050
     FM282200 VRB03KT P6SM VCTS BKN060CB
      TEMPO 2823/2902 VRB15G25KT 4SM TSRA BKN040CB
     FM290400 30005KT P6SM OVC080
     FM291000 30007KT P6SM FEW100=

USA.gov is the U.S. government's official web portal to all federal, state and local government web resources and services.